Pagina principală
METAR-TAF:

METAR-TAF

Aeroporturi :

San Pedro Sula, Honduras

Latitudine: 15-27N, longitudine: 087-56W, elevație: 31 m

Observații meteo curente

Raportul a fost făcut în urmă cu 34 de minute, la 11:00 UTC
Vânt calm
Temperatură 27°C
Umiditate 94%
Presiune 1008 hPa
Vizibilitate: 3000 m
Nori împrăștiați la o înălțime de 2400 picior
fum,

METAR: MHLM 211100Z 00000KT 3000 FU SCT024 27/26 Q1008 A2977 NOSIG

Ora: 05:34 (11:34 UTC)

Prognoză

Raportul a fost făcut în urmă cu 34 de minute, la 11:00 UTC
Prognoză valabilă de la 21 ora 12 UTC la 22 ora 12 UTC
Vânt kt de la Nord
Vizibilitate: 3000 m
Nori împrăștiați la o înălțime de 2800 picior
fum
Devenind
de la 21 ora 19 UTC la 21 ora 21 UTC
Vânt 16 kt de la Nord/Nord-est
Devenind
de la 22 ora 02 UTC la 22 ora 04 UTC
Vânt kt de la Nord

TAF: MHLM 211100Z 2112/2212 00000KT 3000 FU SCT028 TX37/2120Z TN26/2112Z BECMG 2119/2121 02016KT BECMG 2202/2204 00000KT

Observații și prognoze meteo pentru peste 4.000 de aeroporturi (rapoarte METAR și TAF).

Stațiile disponibile sunt reprezentate pe hartă prin puncte galbene și roșii.

Țineți indicatorul mouse-ului pe punctul dorit pentru a vedea denumirea stației.

Apoi, faceți clic pentru a vedea observațiile și prognozele meteorologice.

Pentru a schimba harta: Pentru mărire, faceți clic pe butoanele verzi cu cruce neagră; pentru micșorare, pe butonul verde cu o liniuță; pentru hărți învecinate, pe săgețile verzi.


METAR-TAF: